createdAt,value
2023-03-25T00:01:15.496Z,1.33
2023-03-25T00:03:46.482Z,1.05
2023-03-25T00:06:14.904Z,1.38
2023-03-25T00:08:43.283Z,1.48
2023-03-25T00:11:11.654Z,1.35
2023-03-25T00:13:40.630Z,1.50
2023-03-25T00:16:10.236Z,1.30
2023-03-25T00:18:38.759Z,1.05
2023-03-25T00:21:10.907Z,1.25
2023-03-25T00:23:39.799Z,1.10
2023-03-25T00:26:08.511Z,1.42
2023-03-25T00:28:38.134Z,1.25
2023-03-25T00:31:07.880Z,1.13
2023-03-25T00:33:36.484Z,1.40
2023-03-25T00:36:05.490Z,1.40
2023-03-25T00:38:37.977Z,1.25
2023-03-25T00:41:22.962Z,1.60
2023-03-25T00:43:53.236Z,1.65
2023-03-25T00:46:22.841Z,1.60
2023-03-25T00:48:52.511Z,1.40
2023-03-25T00:51:21.556Z,1.20
2023-03-25T00:53:54.066Z,1.50
2023-03-25T00:56:22.600Z,1.35
2023-03-25T00:58:51.018Z,1.48
2023-03-25T01:01:23.286Z,1.50
2023-03-25T01:03:57.681Z,1.42
2023-03-25T01:06:31.056Z,1.55
2023-03-25T01:09:01.540Z,1.30
2023-03-25T01:11:30.897Z,1.30
2023-03-25T01:14:00.221Z,1.30
2023-03-25T01:16:28.735Z,1.50
2023-03-25T01:18:57.176Z,1.40
2023-03-25T01:21:25.559Z,1.30
2023-03-25T01:23:53.896Z,1.75
2023-03-25T01:26:23.552Z,1.50
2023-03-25T01:28:51.852Z,1.30
2023-03-25T01:31:23.019Z,1.13
2023-03-25T01:33:51.542Z,1.52
2023-03-25T01:36:21.325Z,1.48
2023-03-25T01:38:50.526Z,1.15
2023-03-25T01:41:18.963Z,1.45
2023-03-25T01:46:44.810Z,1.95
2023-03-25T01:49:15.462Z,1.50
2023-03-25T01:51:45.568Z,1.40
2023-03-25T01:54:18.055Z,1.30
2023-03-25T01:56:47.710Z,1.77
2023-03-25T01:59:18.131Z,1.45
2023-03-25T02:01:47.913Z,1.35
2023-03-25T02:04:17.073Z,1.17
2023-03-25T02:06:46.500Z,1.20
2023-03-25T02:09:16.271Z,1.88
2023-03-25T02:11:44.633Z,1.55
2023-03-25T02:14:14.286Z,1.88
2023-03-25T02:16:47.573Z,1.60
2023-03-25T02:19:48.380Z,1.75
2023-03-25T02:22:43.310Z,1.50
2023-03-25T02:25:40.617Z,1.60
2023-03-25T02:28:11.766Z,1.40
2023-03-25T02:31:06.528Z,1.90
2023-03-25T02:34:08.295Z,1.65
2023-03-25T02:36:52.488Z,1.67
2023-03-25T02:39:23.351Z,1.77
2023-03-25T02:41:53.955Z,1.55
2023-03-25T02:44:26.509Z,1.58
2023-03-25T02:46:57.120Z,1.50
2023-03-25T02:49:26.963Z,2.00
2023-03-25T02:51:57.159Z,2.17
2023-03-25T02:54:27.101Z,2.00
2023-03-25T02:56:57.568Z,2.60
2023-03-25T02:59:33.066Z,1.50
2023-03-25T03:02:02.045Z,1.83
2023-03-25T03:04:30.393Z,1.70
2023-03-25T03:06:58.882Z,2.13
2023-03-25T03:09:33.301Z,1.30
2023-03-25T03:12:09.489Z,1.90
2023-03-25T03:14:49.271Z,1.90
2023-03-25T03:17:20.384Z,1.67
2023-03-25T03:19:50.793Z,2.08
2023-03-25T03:22:38.785Z,2.17
2023-03-25T03:25:12.243Z,1.83
2023-03-25T03:27:43.464Z,2.50
2023-03-25T03:30:16.089Z,2.03
2023-03-25T03:32:49.806Z,1.50
2023-03-25T03:35:19.967Z,1.75
2023-03-25T03:37:50.541Z,1.75
2023-03-25T03:40:21.554Z,2.17
2023-03-25T03:42:51.212Z,1.80
2023-03-25T03:45:21.183Z,1.75
2023-03-25T03:47:52.163Z,1.85
2023-03-25T03:50:21.769Z,2.10
2023-03-25T03:52:53.801Z,2.08
2023-03-25T03:55:24.789Z,1.90
2023-03-25T03:57:54.615Z,1.42
2023-03-25T04:00:25.730Z,1.95
2023-03-25T04:02:54.989Z,2.72
2023-03-25T04:05:23.647Z,2.20
2023-03-25T04:07:54.862Z,2.17
2023-03-25T04:10:29.630Z,1.55
2023-03-25T04:12:58.348Z,2.13
2023-03-25T04:15:28.873Z,2.85
2023-03-25T04:17:57.366Z,2.42
2023-03-25T04:20:29.659Z,2.38
2023-03-25T04:23:04.649Z,2.20
2023-03-25T04:25:34.346Z,2.33
2023-03-25T04:28:02.708Z,2.55
2023-03-25T04:30:34.136Z,2.50
2023-03-25T04:33:02.590Z,2.63
2023-03-25T04:35:32.941Z,2.15
2023-03-25T04:38:01.628Z,3.33
2023-03-25T04:40:30.060Z,2.55
2023-03-25T04:43:02.568Z,2.58
2023-03-25T04:45:36.297Z,1.98
2023-03-25T04:48:06.007Z,2.45
2023-03-25T04:50:34.363Z,2.13
2023-03-25T04:53:02.749Z,2.38
2023-03-25T04:55:31.460Z,1.80
2023-03-25T04:57:59.744Z,2.35
2023-03-25T05:00:29.456Z,2.20
2023-03-25T05:03:01.956Z,2.47
2023-03-25T05:05:30.676Z,2.50
2023-03-25T05:07:59.032Z,2.30
2023-03-25T05:10:31.825Z,2.10
2023-03-25T05:13:00.643Z,2.78
2023-03-25T05:15:32.475Z,2.28
2023-03-25T05:18:01.944Z,2.08
2023-03-25T05:20:30.824Z,2.58
2023-03-25T05:22:59.124Z,2.88
2023-03-25T05:25:36.025Z,2.53
2023-03-25T05:28:05.971Z,2.17
2023-03-25T05:30:39.101Z,2.63
2023-03-25T05:33:10.401Z,2.78
2023-03-25T05:35:38.874Z,2.75
2023-03-25T05:38:08.119Z,2.33
2023-03-25T05:40:37.777Z,2.28
2023-03-25T05:43:06.688Z,2.28
2023-03-25T05:45:37.146Z,2.10
2023-03-25T05:48:05.794Z,1.80
2023-03-25T05:50:34.160Z,2.50
2023-03-25T05:53:02.509Z,1.83
2023-03-25T05:55:33.673Z,2.45
2023-03-25T05:58:07.380Z,2.67
2023-03-25T06:00:37.453Z,2.60
2023-03-25T06:03:08.365Z,2.08
2023-03-25T06:05:37.225Z,2.45
2023-03-25T06:08:05.601Z,2.72
2023-03-25T06:10:36.760Z,2.00
2023-03-25T06:13:05.145Z,1.98
2023-03-25T06:15:39.035Z,2.35
2023-03-25T06:18:11.558Z,2.38
2023-03-25T06:20:39.923Z,2.90
2023-03-25T06:23:09.931Z,2.50
2023-03-25T06:25:38.275Z,2.40
2023-03-25T06:28:06.923Z,2.45
2023-03-25T06:30:35.281Z,2.72
2023-03-25T06:33:06.040Z,2.38
2023-03-25T06:35:35.814Z,2.20
2023-03-25T06:38:04.200Z,2.10
2023-03-25T06:40:32.596Z,2.13
2023-03-25T06:43:01.094Z,2.35
2023-03-25T06:45:29.486Z,2.30
2023-03-25T06:47:57.915Z,1.70
2023-03-25T06:50:26.357Z,2.30
2023-03-25T06:52:56.057Z,1.80
2023-03-25T06:55:24.357Z,2.13
2023-03-25T06:57:57.592Z,2.53
2023-03-25T07:00:27.014Z,2.25
2023-03-25T07:02:55.881Z,2.45
2023-03-25T07:05:27.582Z,2.80
2023-03-25T07:07:57.449Z,2.25
2023-03-25T07:10:26.045Z,2.30
2023-03-25T07:12:54.567Z,2.08
2023-03-25T07:15:23.065Z,1.55
2023-03-25T07:17:51.554Z,1.70
2023-03-25T07:20:20.361Z,1.88
2023-03-25T07:22:48.843Z,1.98
2023-03-25T07:25:18.968Z,2.20
2023-03-25T07:27:47.475Z,1.95
2023-03-25T07:30:16.169Z,2.40
2023-03-25T07:32:46.953Z,2.30
2023-03-25T07:35:15.489Z,2.85
2023-03-25T07:37:43.984Z,1.90
2023-03-25T07:40:13.284Z,2.50
2023-03-25T07:42:46.803Z,2.63
2023-03-25T07:45:15.750Z,3.25
2023-03-25T07:47:50.013Z,3.38
2023-03-25T07:50:18.938Z,2.58
2023-03-25T07:52:47.519Z,3.35
2023-03-25T07:55:17.864Z,3.03
2023-03-25T07:57:47.795Z,2.75
2023-03-25T08:00:16.489Z,2.40
2023-03-25T08:02:45.055Z,2.55
2023-03-25T08:05:21.196Z,2.22
2023-03-25T08:07:50.211Z,2.78
2023-03-25T08:10:19.173Z,3.72
2023-03-25T08:12:49.042Z,3.65
2023-03-25T08:15:25.230Z,3.80
2023-03-25T08:17:53.767Z,3.97
2023-03-25T08:20:22.502Z,2.90
2023-03-25T08:22:51.296Z,3.05
2023-03-25T08:25:19.862Z,2.67
2023-03-25T08:27:49.749Z,3.50
2023-03-25T08:30:18.306Z,3.30
2023-03-25T08:32:47.085Z,3.25
2023-03-25T08:35:17.792Z,2.92
2023-03-25T08:37:47.553Z,3.17
2023-03-25T08:40:21.021Z,3.78
2023-03-25T08:42:51.332Z,4.03
2023-03-25T08:45:20.042Z,3.95
2023-03-25T08:47:48.599Z,3.50
2023-03-25T08:50:19.471Z,3.33
2023-03-25T08:52:48.502Z,3.30
2023-03-25T08:55:17.798Z,3.13
2023-03-25T08:57:50.694Z,3.50
2023-03-25T09:00:24.147Z,3.70
2023-03-25T09:02:52.800Z,3.08
2023-03-25T09:05:21.441Z,3.83
2023-03-25T09:07:49.982Z,3.38
2023-03-25T09:10:18.591Z,3.72
2023-03-25T09:12:47.121Z,3.58
2023-03-25T09:15:18.048Z,2.90
2023-03-25T09:17:46.763Z,3.40
2023-03-25T09:20:15.375Z,3.45
2023-03-25T09:22:43.969Z,3.78
2023-03-25T09:25:13.974Z,3.10
2023-03-25T09:27:44.848Z,3.17
2023-03-25T09:30:15.854Z,3.20
2023-03-25T09:32:45.799Z,3.53
2023-03-25T09:35:19.754Z,2.97
2023-03-25T09:37:51.883Z,3.15
2023-03-25T09:40:21.663Z,3.47
2023-03-25T09:43:04.544Z,3.55
2023-03-25T09:45:35.932Z,2.88
2023-03-25T09:48:07.284Z,3.28
2023-03-25T09:50:36.147Z,3.13
2023-03-25T09:53:06.180Z,2.70
2023-03-25T09:55:36.934Z,2.97
2023-03-25T09:58:27.198Z,3.05
2023-03-25T10:00:57.895Z,3.55
2023-03-25T10:03:29.560Z,3.40
2023-03-25T10:06:18.659Z,3.17
2023-03-25T10:08:53.923Z,2.97
2023-03-25T10:11:29.288Z,2.85
2023-03-25T10:14:00.884Z,3.05
2023-03-25T10:16:32.595Z,2.85
2023-03-25T10:19:11.328Z,2.67
2023-03-25T10:21:41.355Z,2.70
2023-03-25T10:24:16.535Z,2.95
2023-03-25T10:26:46.875Z,3.25
2023-03-25T10:29:16.553Z,3.33
2023-03-25T10:31:50.654Z,3.20
2023-03-25T10:34:21.391Z,3.10
2023-03-25T10:36:55.032Z,2.97
2023-03-25T10:39:23.732Z,2.90
2023-03-25T10:41:56.940Z,2.53
2023-03-25T10:44:25.689Z,3.22
2023-03-25T10:46:57.409Z,3.13
2023-03-25T10:49:28.199Z,3.15
2023-03-25T10:51:57.621Z,2.78
2023-03-25T10:54:28.217Z,2.95
2023-03-25T10:56:57.545Z,2.67
2023-03-25T10:59:30.298Z,2.85
2023-03-25T11:01:58.761Z,2.80
2023-03-25T11:04:34.579Z,3.67
2023-03-25T11:07:05.642Z,3.30
2023-03-25T11:09:36.778Z,3.05
2023-03-25T11:12:07.182Z,2.25
2023-03-25T11:14:38.460Z,2.65
2023-03-25T11:17:09.419Z,3.40
2023-03-25T11:19:41.295Z,2.60
2023-03-25T11:22:11.315Z,2.70
2023-03-25T11:24:46.330Z,3.53
2023-03-25T11:27:22.834Z,3.17
2023-03-25T11:29:52.873Z,3.10
2023-03-25T11:32:25.243Z,2.70
2023-03-25T11:34:55.066Z,2.83
2023-03-25T11:37:24.395Z,2.58
2023-03-25T11:39:55.208Z,2.65
2023-03-25T11:42:32.567Z,3.08
2023-03-25T11:45:02.420Z,2.45
2023-03-25T11:47:32.583Z,2.88
2023-03-25T11:50:02.496Z,3.15
2023-03-25T11:52:36.124Z,2.80
2023-03-25T11:55:04.778Z,3.05
2023-03-25T11:57:36.492Z,2.45
2023-03-25T12:00:11.037Z,3.38
2023-03-25T12:02:40.189Z,2.45
2023-03-25T12:05:14.069Z,3.30
2023-03-25T12:07:43.328Z,2.50
2023-03-25T12:10:18.640Z,2.95
2023-03-25T12:12:54.307Z,2.67
2023-03-25T12:15:26.996Z,2.50
2023-03-25T12:18:04.334Z,2.50
2023-03-25T12:20:36.663Z,2.45
2023-03-25T12:23:13.912Z,2.70
2023-03-25T12:25:47.589Z,2.90
2023-03-25T12:28:57.811Z,2.15
2023-03-25T12:31:33.237Z,2.88
2023-03-25T12:34:08.143Z,2.92
2023-03-25T12:36:44.881Z,3.00
2023-03-25T12:39:29.332Z,2.78
2023-03-25T12:42:08.793Z,2.58
2023-03-25T12:44:46.108Z,2.75
2023-03-25T12:47:17.136Z,2.58
2023-03-25T12:49:57.656Z,2.92
2023-03-25T12:52:30.385Z,2.85
2023-03-25T12:55:08.132Z,2.65
2023-03-25T12:57:46.772Z,2.80
2023-03-25T13:00:26.707Z,3.22
2023-03-25T13:03:12.591Z,3.30
2023-03-25T13:05:42.759Z,2.75
2023-03-25T13:08:14.478Z,2.22
2023-03-25T13:10:42.808Z,2.47
2023-03-25T13:13:12.776Z,3.05
2023-03-25T13:15:42.525Z,2.53
2023-03-25T13:18:12.246Z,3.60
2023-03-25T13:20:42.540Z,1.98
2023-03-25T13:23:14.219Z,3.28
2023-03-25T13:25:45.705Z,2.70
2023-03-25T13:28:16.266Z,2.80
2023-03-25T13:30:45.908Z,2.85
2023-03-25T13:33:15.822Z,2.72
2023-03-25T13:35:45.751Z,2.78
2023-03-25T13:38:17.374Z,2.53
2023-03-25T13:40:50.286Z,3.17
2023-03-25T13:43:24.579Z,3.05
2023-03-25T13:45:56.249Z,2.53
2023-03-25T13:48:28.607Z,2.70
2023-03-25T13:51:08.737Z,2.65
2023-03-25T13:53:40.718Z,3.00
2023-03-25T13:56:32.868Z,2.80
2023-03-25T13:59:14.457Z,2.53
2023-03-25T14:01:57.593Z,2.55
2023-03-25T14:04:54.106Z,2.28
2023-03-25T14:07:47.888Z,2.70
2023-03-25T14:10:52.074Z,2.55
2023-03-25T14:13:22.886Z,2.35
2023-03-25T14:15:56.014Z,2.63
2023-03-25T14:18:24.375Z,1.80
2023-03-25T14:20:53.014Z,2.50
2023-03-25T14:23:23.021Z,2.80
2023-03-25T14:25:54.204Z,2.50
2023-03-25T14:28:33.458Z,2.83
2023-03-25T14:31:17.879Z,2.42
2023-03-25T14:34:14.629Z,2.35
2023-03-25T14:37:27.365Z,2.60
2023-03-25T14:39:59.330Z,2.80
2023-03-25T14:42:57.007Z,2.47
2023-03-25T14:45:44.073Z,2.85
2023-03-25T14:48:26.465Z,2.63
2023-03-25T14:51:09.511Z,2.60
2023-03-25T14:53:38.469Z,2.85
2023-03-25T14:56:07.975Z,3.50
2023-03-25T14:58:39.305Z,2.83
2023-03-25T15:01:11.342Z,2.33
2023-03-25T15:03:42.595Z,2.35
2023-03-25T15:06:14.091Z,2.10
2023-03-25T15:08:43.564Z,2.78
2023-03-25T15:11:14.591Z,2.45
2023-03-25T15:13:46.538Z,2.58
2023-03-25T15:16:34.663Z,3.00
2023-03-25T15:19:07.736Z,2.67
2023-03-25T15:22:20.259Z,2.33
2023-03-25T15:24:53.773Z,2.33
2023-03-25T15:27:35.126Z,2.03
2023-03-25T15:30:09.887Z,2.90
2023-03-25T15:32:47.107Z,3.00
2023-03-25T15:35:36.816Z,2.60
2023-03-25T15:38:40.496Z,2.97
2023-03-25T15:41:24.756Z,3.03
2023-03-25T15:44:20.932Z,2.78
2023-03-25T15:47:08.540Z,2.17
2023-03-25T15:49:51.447Z,3.38
2023-03-25T15:52:28.754Z,2.67
2023-03-25T15:54:57.287Z,2.22
2023-03-25T15:57:27.507Z,2.60
2023-03-25T16:00:01.941Z,2.83
2023-03-25T16:02:34.975Z,2.28
2023-03-25T16:05:03.511Z,2.38
2023-03-25T16:07:31.823Z,2.97
2023-03-25T16:10:06.805Z,2.42
2023-03-25T16:12:35.147Z,2.10
2023-03-25T16:15:05.861Z,2.80
2023-03-25T16:17:35.819Z,2.33
2023-03-25T16:20:07.234Z,2.90
2023-03-25T16:22:37.404Z,2.42
2023-03-25T16:25:08.088Z,2.70
2023-03-25T16:27:41.759Z,3.08
2023-03-25T16:30:23.077Z,2.72
2023-03-25T16:32:52.865Z,2.58
2023-03-25T16:35:22.633Z,3.10
2023-03-25T16:37:52.149Z,2.63
2023-03-25T16:40:22.940Z,2.60
2023-03-25T16:42:51.271Z,2.38
2023-03-25T16:45:19.756Z,2.55
2023-03-25T16:47:50.911Z,2.55
2023-03-25T16:50:20.810Z,2.75
2023-03-25T16:52:49.108Z,2.80
2023-03-25T16:55:43.921Z,2.47
2023-03-25T16:58:16.556Z,2.22
2023-03-25T17:00:44.889Z,2.60
2023-03-25T17:03:15.553Z,2.22
2023-03-25T17:05:56.814Z,2.03
2023-03-25T17:08:25.185Z,2.88
2023-03-25T17:10:55.268Z,2.58
2023-03-25T17:13:25.833Z,2.22
2023-03-25T17:15:54.274Z,2.40
2023-03-25T17:18:29.125Z,2.90
2023-03-25T17:21:01.395Z,2.63
2023-03-25T17:23:35.563Z,2.25
2023-03-25T17:26:06.395Z,2.15
2023-03-25T17:28:38.043Z,2.55
2023-03-25T17:31:19.373Z,2.40
2023-03-25T17:33:50.798Z,2.63
2023-03-25T17:36:21.269Z,1.67
2023-03-25T17:38:51.618Z,2.15
2023-03-25T17:41:20.081Z,1.98
2023-03-25T17:43:49.184Z,2.72
2023-03-25T17:46:19.995Z,3.22
2023-03-25T17:48:49.809Z,2.53
2023-03-25T17:51:18.553Z,3.15
2023-03-25T17:53:48.303Z,3.03
2023-03-25T17:56:18.228Z,3.08
2023-03-25T17:58:46.638Z,2.60
2023-03-25T18:01:15.251Z,3.30
2023-03-25T18:03:43.863Z,3.03
2023-03-25T18:06:13.194Z,3.17
2023-03-25T18:08:42.009Z,2.75
2023-03-25T18:11:11.836Z,3.05
2023-03-25T18:13:45.697Z,3.35
2023-03-25T18:16:14.184Z,2.47
2023-03-25T18:18:42.584Z,3.38
2023-03-25T18:21:11.321Z,3.45
2023-03-25T18:23:39.638Z,3.30
2023-03-25T18:26:12.514Z,3.53
2023-03-25T18:28:42.820Z,2.72
2023-03-25T18:31:13.675Z,2.90
2023-03-25T18:33:42.042Z,3.05
2023-03-25T18:36:11.060Z,3.13
2023-03-25T18:38:39.483Z,3.00
2023-03-25T18:41:08.194Z,2.90
2023-03-25T18:43:37.922Z,3.03
2023-03-25T18:46:06.414Z,3.13
2023-03-25T18:48:34.834Z,3.30
2023-03-25T18:51:03.565Z,2.80
2023-03-25T18:53:31.979Z,2.50
2023-03-25T18:56:01.303Z,2.70
2023-03-25T18:58:31.249Z,3.15
2023-03-25T19:01:01.313Z,3.17
2023-03-25T19:03:31.469Z,2.92
2023-03-25T19:06:00.679Z,2.33
2023-03-25T19:08:29.241Z,1.92
2023-03-25T19:11:08.121Z,2.28
2023-03-25T19:16:14.848Z,1.95
2023-03-25T19:18:43.291Z,2.40
2023-03-25T19:21:14.662Z,1.90
2023-03-25T19:23:43.075Z,2.33
2023-03-25T19:26:12.104Z,2.05
2023-03-25T19:28:40.970Z,1.75
2023-03-25T19:31:09.306Z,1.80
2023-03-25T19:33:42.273Z,2.20
2023-03-25T19:36:14.760Z,1.70
2023-03-25T19:38:43.607Z,1.75
2023-03-25T19:41:12.922Z,2.33
2023-03-25T19:43:41.708Z,1.77
2023-03-25T19:46:10.101Z,2.00
2023-03-25T19:48:39.900Z,1.52
2023-03-25T19:51:08.333Z,2.00
2023-03-25T19:53:36.666Z,1.70
2023-03-25T19:56:05.540Z,1.92
2023-03-25T19:58:36.771Z,1.60
2023-03-25T20:01:05.389Z,1.85
2023-03-25T20:03:35.470Z,1.38
2023-03-25T20:06:06.468Z,1.70
2023-03-25T20:08:34.858Z,1.83
2023-03-25T20:11:09.428Z,1.80
2023-03-25T20:13:37.808Z,1.33
2023-03-25T20:16:07.214Z,1.60
2023-03-25T20:18:35.596Z,1.98
2023-03-25T20:21:07.532Z,1.70
2023-03-25T20:23:36.059Z,1.52
2023-03-25T20:26:04.651Z,1.30
2023-03-25T20:28:33.011Z,1.40
2023-03-25T20:31:01.489Z,1.70
2023-03-25T20:33:29.948Z,1.48
2023-03-25T20:35:58.384Z,1.50
2023-03-25T20:38:28.140Z,1.52
2023-03-25T20:40:56.441Z,1.10
2023-03-25T20:43:25.033Z,1.35
2023-03-25T20:45:55.495Z,1.23
2023-03-25T20:48:26.658Z,1.48
2023-03-25T20:51:00.348Z,1.30
2023-03-25T20:53:30.445Z,0.98
2023-03-25T20:55:59.438Z,1.48
2023-03-25T20:58:28.437Z,0.82
2023-03-25T21:00:58.923Z,1.20
2023-03-25T21:03:27.639Z,1.00
2023-03-25T21:05:56.932Z,1.63
2023-03-25T21:08:25.971Z,0.80
2023-03-25T21:10:55.958Z,1.48
2023-03-25T21:13:26.366Z,1.10
2023-03-25T21:15:55.490Z,1.17
2023-03-25T21:18:24.776Z,1.25
2023-03-25T21:20:53.562Z,1.70
2023-03-25T21:23:27.830Z,0.93
2023-03-25T21:26:00.326Z,1.08
2023-03-25T21:28:29.159Z,0.93
2023-03-25T21:31:03.256Z,1.27
2023-03-25T21:33:34.099Z,0.90
2023-03-25T21:36:02.757Z,0.98
2023-03-25T21:38:31.324Z,1.20
2023-03-25T21:41:02.571Z,0.85
2023-03-25T21:43:31.029Z,0.88
2023-03-25T21:46:05.373Z,1.10
2023-03-25T21:48:38.075Z,1.30
2023-03-25T21:51:09.933Z,1.27
2023-03-25T21:53:43.881Z,1.00
2023-03-25T21:56:14.646Z,1.00
2023-03-25T21:58:43.059Z,1.00
2023-03-25T22:01:12.953Z,0.90
2023-03-25T22:03:45.210Z,0.90
2023-03-25T22:06:14.716Z,1.15
2023-03-25T22:08:43.029Z,1.02
2023-03-25T22:11:13.687Z,1.13
2023-03-25T22:13:42.092Z,0.68
2023-03-25T22:16:11.262Z,1.10
2023-03-25T22:18:39.764Z,0.90
2023-03-25T22:21:09.535Z,1.05
2023-03-25T22:23:37.912Z,1.05
2023-03-25T22:26:07.485Z,0.88
2023-03-25T22:28:37.392Z,1.23
2023-03-25T22:31:15.570Z,0.93
2023-03-25T22:33:44.015Z,0.90
2023-03-25T22:36:13.632Z,1.00
2023-03-25T22:38:42.394Z,0.80
2023-03-25T22:41:10.782Z,0.98
2023-03-25T22:43:40.527Z,1.02
2023-03-25T22:46:09.190Z,0.80
2023-03-25T22:48:39.053Z,0.63
2023-03-25T22:51:08.154Z,1.13
2023-03-25T22:53:36.572Z,0.98
2023-03-25T22:56:05.388Z,1.10
2023-03-25T22:58:33.784Z,0.90
2023-03-25T23:01:04.368Z,0.65
2023-03-25T23:03:32.864Z,0.80
2023-03-25T23:06:02.397Z,1.00
2023-03-25T23:08:32.042Z,0.85
2023-03-25T23:11:00.849Z,0.80
2023-03-25T23:13:30.086Z,0.82
2023-03-25T23:15:59.695Z,0.70
2023-03-25T23:18:29.427Z,1.00
2023-03-25T23:21:00.404Z,1.10
2023-03-25T23:23:28.813Z,0.75
2023-03-25T23:26:04.620Z,0.93
2023-03-25T23:28:36.133Z,0.85
2023-03-25T23:31:04.857Z,0.88
2023-03-25T23:33:34.495Z,1.00
2023-03-25T23:36:05.416Z,0.90
2023-03-25T23:38:34.088Z,0.70
2023-03-25T23:41:02.872Z,0.80
2023-03-25T23:43:31.184Z,0.80
2023-03-25T23:46:01.320Z,0.93
2023-03-25T23:48:29.708Z,0.90
2023-03-25T23:50:59.516Z,1.08
2023-03-25T23:53:28.129Z,0.90
2023-03-25T23:55:56.731Z,1.00
2023-03-25T23:58:25.839Z,0.70
